Time;durP1;ratioP1;P1;durP2;ratioP2;P2;SDS_P1;SDS_P2;PMS_P1;PMS_P2;Temp;Humidity;BMP_temperature;BMP_pressure;BME280_temperature;BME280_humidity;BME280_pressure;Samples;Min_cycle;Max_cycle;Signal;HPM_P1;HPM_P2
2022/12/02 00:00:24;;;;;;;4.17;3.97;;;5.90;99.90;;;;;;5053818;28;20873;-64
2022/12/02 00:02:51;;;;;;;4.20;4.00;;;5.90;99.90;;;;;;5053892;28;20582;-62
2022/12/02 00:05:28;;;;;;;3.90;3.70;;;5.80;99.90;;;;;;5053240;28;20231;-64
2022/12/02 00:07:57;;;;;;;4.00;3.80;;;5.80;99.90;;;;;;5051550;28;20195;-65
2022/12/02 00:10:26;;;;;;;4.40;4.10;;;5.70;99.90;;;;;;5058554;28;20204;-62
2022/12/02 00:12:53;;;;;;;3.77;3.57;;;5.80;99.90;;;;;;5054636;28;20200;-63
2022/12/02 00:15:43;;;;;;;4.73;4.43;;;5.80;99.90;;;;;;5053994;28;20255;-64
2022/12/02 00:18:12;;;;;;;4.73;4.43;;;5.80;99.90;;;;;;5044149;28;20287;-64
2022/12/02 00:20:40;;;;;;;5.00;4.70;;;5.80;99.90;;;;;;5053578;28;20208;-64
2022/12/02 00:23:07;;;;;;;4.37;4.17;;;5.80;99.90;;;;;;5053476;28;20297;-63
2022/12/02 00:25:35;;;;;;;4.83;4.43;;;5.90;99.90;;;;;;5053498;28;20224;-62
2022/12/02 00:28:02;;;;;;;4.20;4.00;;;5.90;99.90;;;;;;5053709;28;20304;-63
2022/12/02 00:30:29;;;;;;;5.20;4.90;;;6.00;99.90;;;;;;5048976;28;20204;-64
2022/12/02 00:32:58;;;;;;;5.33;5.03;;;5.90;99.90;;;;;;5065779;28;20295;-63
2022/12/02 00:35:25;;;;;;;4.70;4.40;;;5.80;99.90;;;;;;5053249;28;20643;-63
2022/12/02 00:37:52;;;;;;;4.77;4.47;;;5.80;99.90;;;;;;5053629;28;20222;-63
2022/12/02 00:40:19;;;;;;;5.10;4.77;;;5.90;99.90;;;;;;5054484;28;20230;-63
2022/12/02 00:42:46;;;;;;;4.60;4.30;;;5.80;99.90;;;;;;5053365;28;20204;-65
2022/12/02 00:48:00;;;;;;;4.80;4.50;;;5.90;99.90;;;;;;5050598;28;20886;-62
2022/12/02 00:50:28;;;;;;;4.63;4.33;;;5.90;99.90;;;;;;5054749;28;20224;-63
2022/12/02 00:52:55;;;;;;;4.60;4.30;;;6.00;99.90;;;;;;5054862;28;20202;-63
2022/12/02 00:55:22;;;;;;;4.57;4.27;;;6.10;99.90;;;;;;5054948;28;20230;-62
2022/12/02 00:57:48;;;;;;;3.70;3.50;;;6.20;99.90;;;;;;5049266;28;20196;-64
2022/12/02 01:00:16;;;;;;;4.20;3.90;;;6.30;99.90;;;;;;5050116;28;20200;-63
2022/12/02 01:02:43;;;;;;;4.70;4.40;;;6.30;99.90;;;;;;5054786;28;20204;-63
2022/12/02 01:05:11;;;;;;;4.70;4.40;;;6.40;99.90;;;;;;5046281;28;20220;-63
2022/12/02 01:07:38;;;;;;;5.00;4.53;;;6.30;99.90;;;;;;5050826;28;20292;-64
2022/12/02 01:10:06;;;;;;;4.73;4.40;;;6.30;99.90;;;;;;5052980;28;20287;-63
2022/12/02 01:12:33;;;;;;;4.60;4.30;;;6.30;99.90;;;;;;5052590;28;20307;-65
2022/12/02 01:15:00;;;;;;;4.40;4.10;;;6.30;99.90;;;;;;5053114;28;20315;-64
2022/12/02 01:17:26;;;;;;;4.90;4.60;;;6.30;99.90;;;;;;5053787;28;20274;-63
2022/12/02 01:19:53;;;;;;;4.67;4.40;;;6.40;99.90;;;;;;5053114;28;20211;-63
2022/12/02 01:22:21;;;;;;;4.60;4.30;;;6.30;99.90;;;;;;5052549;28;20208;-64
2022/12/02 01:24:48;;;;;;;4.37;4.07;;;6.40;99.90;;;;;;5046255;28;20710;-64
2022/12/02 01:27:15;;;;;;;4.17;3.90;;;6.40;99.90;;;;;;5052236;28;20215;-63
2022/12/02 01:29:42;;;;;;;4.70;4.40;;;6.40;99.90;;;;;;5046662;28;20248;-64
2022/12/02 01:32:09;;;;;;;4.80;4.50;;;6.40;99.90;;;;;;5051990;28;20208;-64
2022/12/02 01:34:36;;;;;;;3.83;3.63;;;6.40;99.90;;;;;;5051955;28;20252;-63
2022/12/02 01:37:03;;;;;;;4.70;4.40;;;6.50;99.90;;;;;;5051820;28;20288;-62
2022/12/02 01:39:31;;;;;;;4.43;4.13;;;6.50;99.90;;;;;;5052456;28;20591;-64
2022/12/02 01:41:58;;;;;;;4.67;4.37;;;6.50;99.90;;;;;;5051615;28;20226;-64
2022/12/02 01:44:25;;;;;;;4.50;4.20;;;6.50;99.90;;;;;;5051504;28;20730;-63
2022/12/02 01:46:52;;;;;;;4.73;4.43;;;6.50;99.90;;;;;;5051518;28;20307;-65
2022/12/02 01:49:19;;;;;;;4.27;3.97;;;6.60;99.90;;;;;;5052291;28;20208;-65
2022/12/02 01:51:46;;;;;;;4.47;4.20;;;6.60;99.90;;;;;;5051962;28;20718;-64
2022/12/02 01:54:13;;;;;;;4.90;4.60;;;6.60;99.90;;;;;;5052026;28;20251;-65
2022/12/02 01:56:41;;;;;;;4.60;4.30;;;6.60;99.90;;;;;;5045989;28;20201;-64
2022/12/02 01:59:10;;;;;;;3.77;3.57;;;6.50;99.90;;;;;;5046296;28;20210;-65
2022/12/02 02:01:37;;;;;;;4.70;4.40;;;6.60;99.90;;;;;;5051295;28;20246;-64
2022/12/02 02:04:04;;;;;;;4.77;4.47;;;6.60;99.90;;;;;;5051035;28;20655;-63
2022/12/02 02:06:34;;;;;;;4.57;4.27;;;6.60;99.90;;;;;;5051682;28;20230;-65
2022/12/02 02:09:01;;;;;;;4.70;4.40;;;6.60;99.90;;;;;;5050635;28;20212;-62
2022/12/02 02:11:28;;;;;;;4.53;4.23;;;6.60;99.90;;;;;;5050573;28;20200;-63
2022/12/02 02:13:57;;;;;;;4.70;4.40;;;6.60;99.90;;;;;;5051346;28;20220;-63
2022/12/02 02:16:24;;;;;;;5.10;4.80;;;6.70;99.90;;;;;;5053187;28;20206;-64
2022/12/02 02:18:51;;;;;;;4.17;3.93;;;6.60;99.90;;;;;;5043799;28;20200;-64
2022/12/02 02:21:22;;;;;;;4.43;4.20;;;6.70;99.90;;;;;;5050046;28;20208;-66
2022/12/02 02:23:50;;;;;;;5.60;5.20;;;6.70;99.90;;;;;;5043844;28;20418;-65
2022/12/02 02:26:17;;;;;;;4.57;4.27;;;6.70;99.90;;;;;;5048272;28;20250;-64
2022/12/02 02:28:44;;;;;;;4.80;4.50;;;6.70;99.90;;;;;;5048319;28;20619;-64
2022/12/02 02:31:11;;;;;;;5.10;4.80;;;6.60;99.90;;;;;;5046127;28;20200;-62
2022/12/02 02:33:39;;;;;;;4.90;4.60;;;6.60;99.90;;;;;;5049537;28;20247;-63
2022/12/02 02:36:07;;;;;;;4.43;4.13;;;6.60;99.90;;;;;;5049705;28;20196;-63
2022/12/02 02:38:35;;;;;;;4.60;4.30;;;6.60;99.90;;;;;;5047169;28;20571;-64
2022/12/02 02:41:04;;;;;;;4.87;4.57;;;6.60;99.90;;;;;;5049751;28;20196;-63
2022/12/02 02:43:32;;;;;;;5.27;4.87;;;6.70;99.90;;;;;;5041233;28;20204;-64
2022/12/02 02:45:59;;;;;;;5.00;4.70;;;6.70;99.90;;;;;;5049470;28;20541;-63
2022/12/02 02:48:27;;;;;;;4.63;4.33;;;6.70;99.90;;;;;;5039405;28;20220;-64
2022/12/02 02:50:55;;;;;;;4.73;4.43;;;6.70;99.90;;;;;;5042202;28;20232;-64
2022/12/02 02:53:25;;;;;;;4.63;4.33;;;6.70;99.90;;;;;;5050194;28;20291;-64
2022/12/02 02:55:52;;;;;;;4.83;4.53;;;6.70;99.90;;;;;;5050755;28;20224;-64
2022/12/02 02:58:22;;;;;;;4.73;4.43;;;6.70;99.90;;;;;;5050031;28;20295;-65
2022/12/02 03:00:53;;;;;;;4.70;4.40;;;6.70;99.90;;;;;;5046629;28;20208;-64
2022/12/02 03:03:23;;;;;;;4.43;4.20;;;6.70;99.90;;;;;;5050279;28;20211;-64
2022/12/02 03:05:51;;;;;;;5.13;4.83;;;6.70;99.90;;;;;;5050215;28;20667;-65
2022/12/02 03:08:20;;;;;;;5.20;4.90;;;6.80;99.90;;;;;;5048516;28;20200;-63
2022/12/02 03:10:46;;;;;;;5.10;4.80;;;6.80;99.90;;;;;;5050297;28;20294;-64
2022/12/02 03:13:13;;;;;;;5.00;4.70;;;6.80;99.90;;;;;;5050628;28;20200;-65
2022/12/02 03:15:42;;;;;;;5.07;4.77;;;6.80;99.90;;;;;;5050993;28;20291;-64
2022/12/02 03:18:09;;;;;;;4.93;4.63;;;6.70;99.90;;;;;;5051269;28;20203;-62
2022/12/02 03:20:36;;;;;;;6.87;6.40;;;6.70;99.90;;;;;;5044030;28;20204;-64
2022/12/02 03:23:03;;;;;;;7.10;6.60;;;6.70;99.90;;;;;;5045435;28;20688;-62
2022/12/02 03:25:31;;;;;;;6.47;6.07;;;6.40;99.90;;;;;;5051095;28;20298;-64
2022/12/02 03:27:58;;;;;;;7.23;6.73;;;6.30;99.90;;;;;;5050502;28;20287;-64
2022/12/02 03:30:25;;;;;;;7.10;6.60;;;6.10;99.90;;;;;;5050689;28;20597;-66
2022/12/02 03:32:54;;;;;;;6.70;6.20;;;6.00;99.90;;;;;;5049922;28;20292;-63
2022/12/02 03:35:21;;;;;;;6.60;6.10;;;5.90;99.90;;;;;;5050089;28;20234;-63
2022/12/02 03:37:48;;;;;;;7.60;7.00;;;6.00;99.90;;;;;;5050390;28;20199;-63
2022/12/02 03:40:15;;;;;;;7.00;6.50;;;5.90;99.90;;;;;;5050227;28;20303;-63
2022/12/02 03:42:43;;;;;;;7.60;7.00;;;5.90;99.90;;;;;;5050153;28;20283;-64
2022/12/02 03:45:11;;;;;;;7.70;7.20;;;5.80;99.90;;;;;;5048486;28;20311;-62
2022/12/02 03:47:39;;;;;;;7.30;6.80;;;5.80;99.90;;;;;;5036467;28;20234;-63
2022/12/02 03:50:08;;;;;;;7.53;7.03;;;5.80;99.90;;;;;;5046932;28;20290;-64
2022/12/02 03:52:36;;;;;;;7.67;7.17;;;5.80;99.90;;;;;;5049500;28;20206;-63
2022/12/02 03:55:03;;;;;;;7.80;7.30;;;5.80;99.90;;;;;;5050071;28;20222;-65
2022/12/02 03:57:32;;;;;;;7.17;6.67;;;5.60;99.90;;;;;;5049977;28;20206;-64
2022/12/02 03:59:59;;;;;;;6.80;6.30;;;5.70;99.90;;;;;;5050403;28;20238;-63
2022/12/02 04:02:26;;;;;;;7.10;6.60;;;5.70;99.90;;;;;;5049980;28;20694;-62
2022/12/02 04:04:53;;;;;;;8.17;7.57;;;5.80;99.90;;;;;;5049437;28;20224;-64
2022/12/02 04:07:21;;;;;;;8.10;7.47;;;5.80;99.90;;;;;;5062308;28;20311;-65
2022/12/02 04:09:48;;;;;;;7.57;7.07;;;5.80;99.90;;;;;;5064157;28;20448;-64
2022/12/02 04:12:14;;;;;;;8.30;7.70;;;5.70;99.90;;;;;;5038144;28;20211;-64
2022/12/02 04:14:41;;;;;;;7.73;7.13;;;5.60;99.90;;;;;;5049905;28;20247;-65
2022/12/02 04:17:08;;;;;;;7.60;7.03;;;5.60;99.90;;;;;;5050195;28;20226;-64
2022/12/02 04:19:35;;;;;;;7.97;7.40;;;5.60;99.90;;;;;;5043336;28;20644;-65
2022/12/02 04:22:02;;;;;;;7.90;7.40;;;5.70;99.90;;;;;;5052043;28;20200;-65
2022/12/02 04:24:30;;;;;;;8.20;7.60;;;5.60;99.90;;;;;;5051248;28;20220;-62
2022/12/02 04:26:57;;;;;;;7.93;7.37;;;5.60;99.90;;;;;;5050906;28;20566;-64
2022/12/02 04:29:24;;;;;;;7.97;7.37;;;5.50;99.90;;;;;;5047509;28;20648;-64
2022/12/02 04:31:50;;;;;;;8.23;7.57;;;5.50;99.90;;;;;;5050232;28;20220;-63
2022/12/02 04:34:17;;;;;;;7.63;7.03;;;5.60;99.90;;;;;;5046327;28;20247;-62
2022/12/02 04:36:44;;;;;;;7.73;7.23;;;5.60;99.90;;;;;;5050686;28;20202;-63
2022/12/02 04:39:11;;;;;;;7.37;6.87;;;5.70;99.90;;;;;;5054277;28;20214;-64
2022/12/02 04:41:39;;;;;;;7.90;7.30;;;5.70;99.90;;;;;;5059136;28;20632;-63
2022/12/02 04:44:06;;;;;;;7.07;6.57;;;5.70;99.90;;;;;;5062646;28;20350;-63
2022/12/02 04:46:33;;;;;;;7.40;6.80;;;5.80;99.90;;;;;;5058119;28;20694;-63
2022/12/02 04:49:00;;;;;;;7.87;7.27;;;5.90;99.90;;;;;;5055274;28;20236;-64
2022/12/02 04:51:26;;;;;;;7.10;6.53;;;5.90;99.90;;;;;;5060085;28;20683;-63
2022/12/02 04:53:53;;;;;;;8.40;7.53;;;5.90;99.90;;;;;;5063098;28;20251;-64
2022/12/02 04:56:20;;;;;;;8.07;7.57;;;5.90;99.90;;;;;;5064677;28;20208;-63
2022/12/02 04:58:48;;;;;;;7.83;7.23;;;5.80;99.90;;;;;;5055482;28;20827;-63
2022/12/02 05:01:15;;;;;;;6.83;6.33;;;5.70;99.90;;;;;;5053365;28;20299;-65
2022/12/02 05:03:42;;;;;;;8.13;7.53;;;5.70;99.90;;;;;;5052889;28;20220;-63
2022/12/02 05:06:09;;;;;;;8.67;7.97;;;5.70;99.90;;;;;;5053084;28;20592;-64
2022/12/02 05:08:36;;;;;;;8.10;7.60;;;5.60;99.90;;;;;;5052907;28;20204;-62
2022/12/02 05:11:03;;;;;;;7.70;7.20;;;5.70;99.90;;;;;;5052802;28;20226;-63
2022/12/02 05:13:29;;;;;;;7.57;7.03;;;5.60;99.90;;;;;;5052340;28;20204;-65
2022/12/02 05:15:58;;;;;;;7.23;6.70;;;5.70;99.90;;;;;;5052361;28;20214;-65
2022/12/02 05:18:24;;;;;;;8.30;7.70;;;5.80;99.90;;;;;;5052415;28;20211;-63
2022/12/02 05:20:51;;;;;;;7.10;6.60;;;5.80;99.90;;;;;;5046834;28;20205;-63
2022/12/02 05:23:18;;;;;;;7.27;6.77;;;5.90;99.90;;;;;;5051108;28;20211;-65
2022/12/02 05:25:45;;;;;;;6.77;6.33;;;5.90;99.90;;;;;;5051170;28;20208;-65
2022/12/02 05:28:12;;;;;;;7.63;7.13;;;5.90;99.90;;;;;;5051253;28;20311;-64
2022/12/02 05:30:39;;;;;;;7.27;6.77;;;5.90;99.90;;;;;;5050977;28;20211;-64
2022/12/02 05:33:07;;;;;;;7.13;6.63;;;6.00;99.90;;;;;;5047200;28;20231;-64
2022/12/02 05:35:34;;;;;;;7.20;6.67;;;6.00;99.90;;;;;;5046323;28;20223;-64
2022/12/02 05:38:01;;;;;;;7.70;7.10;;;5.90;99.90;;;;;;5051269;28;20587;-64
2022/12/02 05:40:28;;;;;;;7.27;6.77;;;5.90;99.90;;;;;;5041989;28;20200;-64
2022/12/02 05:42:55;;;;;;;7.60;7.00;;;6.00;99.90;;;;;;5049347;28;20299;-64
2022/12/02 05:45:23;;;;;;;7.80;7.30;;;6.00;99.90;;;;;;5053164;28;20230;-68
2022/12/02 05:47:53;;;;;;;8.30;7.70;;;6.00;99.90;;;;;;5053550;28;20311;-62
2022/12/02 05:50:22;;;;;;;7.90;7.30;;;6.00;99.90;;;;;;5052304;28;20204;-63
2022/12/02 05:52:49;;;;;;;7.10;6.60;;;6.00;99.90;;;;;;5052580;28;20211;-64
2022/12/02 05:55:19;;;;;;;7.07;6.60;;;6.00;99.90;;;;;;5050636;28;20316;-63
2022/12/02 05:57:47;;;;;;;6.47;6.07;;;6.00;99.90;;;;;;5041829;28;20200;-65
2022/12/02 06:00:16;;;;;;;6.83;6.30;;;6.00;99.90;;;;;;5043623;28;20212;-64
2022/12/02 06:02:46;;;;;;;6.60;6.20;;;6.00;99.90;;;;;;5046785;28;20207;-64
2022/12/02 06:05:23;;;;;;;6.87;6.37;;;6.00;99.90;;;;;;5036866;28;20688;-63
2022/12/02 06:07:53;;;;;;;6.30;5.90;;;6.00;99.90;;;;;;5046899;28;20334;-65
2022/12/02 06:10:24;;;;;;;6.00;5.70;;;6.00;99.90;;;;;;5037664;28;20291;-64
2022/12/02 06:12:52;;;;;;;6.60;6.10;;;6.00;99.90;;;;;;5040514;28;20297;-65
2022/12/02 06:15:19;;;;;;;5.63;5.30;;;5.90;99.90;;;;;;5045780;28;20328;-65
2022/12/02 06:17:46;;;;;;;6.30;5.90;;;5.90;99.90;;;;;;5053128;28;20649;-64
2022/12/02 06:20:21;;;;;;;6.17;5.67;;;5.80;99.90;;;;;;5051376;28;20569;-64
2022/12/02 06:22:49;;;;;;;6.13;5.73;;;5.80;99.90;;;;;;5050549;28;20805;-64
2022/12/02 06:25:23;;;;;;;5.67;5.37;;;5.80;99.90;;;;;;5051622;28;20224;-63
2022/12/02 06:27:52;;;;;;;6.57;6.07;;;5.80;99.90;;;;;;5050112;28;20230;-64
2022/12/02 06:30:19;;;;;;;6.97;6.47;;;5.70;99.90;;;;;;5043503;28;20207;-63
2022/12/02 06:32:52;;;;;;;6.50;6.00;;;5.70;99.90;;;;;;5051437;28;20559;-64
2022/12/02 06:35:23;;;;;;;6.37;5.87;;;5.70;99.90;;;;;;5052630;28;20691;-65
2022/12/02 06:37:54;;;;;;;6.40;5.93;;;5.60;99.90;;;;;;5043915;28;20202;-64
2022/12/02 06:40:24;;;;;;;6.70;6.30;;;5.40;99.90;;;;;;5038155;28;20291;-64
2022/12/02 06:42:51;;;;;;;6.73;6.23;;;5.40;99.90;;;;;;5047179;28;20201;-64
2022/12/02 06:45:24;;;;;;;6.67;6.27;;;5.30;99.90;;;;;;5053325;28;20226;-63
2022/12/02 06:48:03;;;;;;;6.43;5.97;;;5.20;99.90;;;;;;5055584;28;20224;-64
2022/12/02 06:50:33;;;;;;;7.03;6.43;;;5.20;99.90;;;;;;5046009;28;20299;-62
2022/12/02 06:53:18;;;;;;;6.60;6.10;;;5.30;99.90;;;;;;5047147;28;20197;-63
2022/12/02 06:55:45;;;;;;;6.80;6.30;;;5.30;99.90;;;;;;5048914;28;20204;-63
2022/12/02 06:58:34;;;;;;;7.50;7.00;;;5.30;99.90;;;;;;5054630;28;20207;-63
2022/12/02 07:01:18;;;;;;;6.40;6.00;;;5.40;99.90;;;;;;5040238;28;20234;-65
2022/12/02 07:03:49;;;;;;;5.67;5.27;;;5.30;99.90;;;;;;5045109;28;20313;-62
2022/12/02 07:06:19;;;;;;;6.50;6.00;;;5.30;99.90;;;;;;5055305;28;20300;-63
2022/12/02 07:08:48;;;;;;;6.17;5.77;;;5.30;99.90;;;;;;5042798;28;20199;-65
2022/12/02 07:11:48;;;;;;;6.10;5.70;;;5.30;99.90;;;;;;5043279;28;20295;-63
2022/12/02 07:14:14;;;;;;;6.07;5.67;;;5.40;99.90;;;;;;5050145;28;20224;-63
2022/12/02 07:16:42;;;;;;;5.80;5.40;;;5.50;99.90;;;;;;5049505;28;20224;-63
2022/12/02 07:19:14;;;;;;;5.50;5.20;;;5.50;99.90;;;;;;5049073;28;20679;-63
2022/12/02 07:21:40;;;;;;;5.57;5.20;;;5.60;99.90;;;;;;5061045;28;20207;-64
2022/12/02 07:24:13;;;;;;;5.93;5.53;;;5.70;99.90;;;;;;5052081;28;20224;-63
2022/12/02 07:26:40;;;;;;;5.97;5.53;;;5.70;99.90;;;;;;5037936;28;20291;-63
2022/12/02 07:29:13;;;;;;;5.47;5.07;;;5.80;99.90;;;;;;5050688;28;20584;-64
2022/12/02 07:31:43;;;;;;;6.00;5.60;;;5.80;99.90;;;;;;5048029;28;20267;-64
2022/12/02 07:34:10;;;;;;;5.70;5.30;;;5.80;99.90;;;;;;5050157;28;20220;-64
2022/12/02 07:36:37;;;;;;;5.50;5.10;;;5.90;99.90;;;;;;5059328;28;20275;-63
2022/12/02 07:39:04;;;;;;;5.60;5.20;;;5.90;99.90;;;;;;5038183;28;20228;-62
2022/12/02 07:41:32;;;;;;;5.37;4.97;;;6.00;99.90;;;;;;5046997;28;20206;-65
2022/12/02 07:43:59;;;;;;;5.37;5.07;;;6.00;99.90;;;;;;5054107;28;20306;-63
2022/12/02 07:46:26;;;;;;;5.43;5.03;;;6.00;99.90;;;;;;5056229;28;20215;-62
2022/12/02 07:48:53;;;;;;;4.73;4.43;;;6.10;99.90;;;;;;5056777;28;20723;-64
2022/12/02 07:51:20;;;;;;;5.20;4.90;;;6.10;99.90;;;;;;5042223;28;20207;-64
2022/12/02 07:53:47;;;;;;;5.10;4.80;;;6.20;99.90;;;;;;5038858;28;20219;-62
2022/12/02 07:56:14;;;;;;;5.20;4.80;;;6.20;99.90;;;;;;5061898;28;20214;-64
2022/12/02 07:58:42;;;;;;;5.27;4.87;;;6.30;99.90;;;;;;5054377;28;20202;-64
2022/12/02 08:01:09;;;;;;;5.50;5.10;;;6.40;99.90;;;;;;5046361;28;20211;-64
2022/12/02 08:03:35;;;;;;;5.67;5.27;;;6.40;99.90;;;;;;5049441;28;20228;-64
2022/12/02 08:06:02;;;;;;;5.00;4.70;;;6.40;99.90;;;;;;5043669;28;20568;-62
2022/12/02 08:08:29;;;;;;;5.57;5.17;;;6.40;99.90;;;;;;5042089;28;20227;-63
2022/12/02 08:10:56;;;;;;;5.50;5.10;;;6.30;99.90;;;;;;5054278;28;20222;-63
2022/12/02 08:13:23;;;;;;;5.20;4.83;;;6.30;99.90;;;;;;5069445;28;20211;-65
2022/12/02 08:15:51;;;;;;;5.50;5.10;;;6.30;99.90;;;;;;5064684;28;20322;-63
2022/12/02 08:18:18;;;;;;;5.30;4.90;;;6.40;99.90;;;;;;5049152;28;20298;-64
2022/12/02 08:20:45;;;;;;;6.23;5.50;;;6.30;99.90;;;;;;5053050;28;20205;-63
2022/12/02 08:23:11;;;;;;;5.67;5.27;;;6.20;99.90;;;;;;5039885;28;20200;-62
2022/12/02 08:25:38;;;;;;;5.57;5.17;;;6.10;99.90;;;;;;5045649;28;20651;-63
2022/12/02 08:28:05;;;;;;;6.60;6.20;;;6.00;99.90;;;;;;5043041;28;20220;-63
2022/12/02 08:30:32;;;;;;;6.10;5.70;;;6.00;99.90;;;;;;5039293;28;20211;-65
2022/12/02 08:33:00;;;;;;;6.03;5.60;;;6.00;99.90;;;;;;5052277;28;20210;-65
2022/12/02 08:35:27;;;;;;;5.00;4.70;;;6.00;99.90;;;;;;5055752;28;20234;-62
2022/12/02 08:37:54;;;;;;;6.20;5.70;;;6.00;99.90;;;;;;5056529;28;20263;-63
2022/12/02 08:40:20;;;;;;;5.87;5.47;;;6.00;99.90;;;;;;5059657;28;20775;-63
2022/12/02 08:42:47;;;;;;;6.73;6.13;;;6.00;99.90;;;;;;5055943;28;20211;-62
2022/12/02 08:45:14;;;;;;;6.70;6.20;;;6.00;99.90;;;;;;5046334;28;20251;-63
2022/12/02 08:47:41;;;;;;;6.53;5.93;;;6.00;99.90;;;;;;5039677;28;20613;-63
2022/12/02 08:50:10;;;;;;;5.83;5.43;;;6.00;99.90;;;;;;5048442;28;20196;-62
2022/12/02 08:52:37;;;;;;;6.10;5.70;;;6.00;99.90;;;;;;5047224;28;20211;-64
2022/12/02 08:55:04;;;;;;;6.47;6.00;;;6.10;99.90;;;;;;5055083;28;20654;-62
2022/12/02 08:57:31;;;;;;;6.23;5.83;;;6.00;99.90;;;;;;5042400;28;20464;-64
2022/12/02 08:59:58;;;;;;;6.13;5.72;;;6.00;99.90;;;;;;5046079;28;20232;-64
2022/12/02 09:02:25;;;;;;;5.53;5.23;;;6.20;99.90;;;;;;5054002;28;20227;-65
2022/12/02 09:04:52;;;;;;;5.80;5.40;;;6.30;99.90;;;;;;5055399;28;20220;-62
2022/12/02 09:07:20;;;;;;;5.30;4.97;;;6.30;99.90;;;;;;5053044;28;20220;-62
2022/12/02 09:09:47;;;;;;;5.97;5.47;;;6.30;99.90;;;;;;5048637;28;20204;-64
2022/12/02 09:12:14;;;;;;;5.93;5.53;;;6.30;99.90;;;;;;5049771;28;20236;-64
2022/12/02 09:14:40;;;;;;;5.40;5.10;;;6.30;99.90;;;;;;5048397;28;20223;-64
2022/12/02 09:17:07;;;;;;;5.33;4.93;;;6.20;99.90;;;;;;5045137;28;20208;-63
2022/12/02 09:19:34;;;;;;;5.23;4.93;;;6.10;99.90;;;;;;5047957;28;20230;-64
2022/12/02 09:22:01;;;;;;;5.67;5.27;;;6.10;99.90;;;;;;5048129;28;20205;-63
2022/12/02 09:24:29;;;;;;;5.87;5.47;;;6.10;99.90;;;;;;5046855;28;20322;-64
2022/12/02 09:26:56;;;;;;;6.13;5.73;;;6.10;99.90;;;;;;5047981;28;20228;-65
2022/12/02 09:29:24;;;;;;;5.73;5.33;;;6.10;99.90;;;;;;5050976;28;20220;-63
2022/12/02 09:31:50;;;;;;;6.03;5.63;;;6.10;99.90;;;;;;5053298;28;20229;-64
2022/12/02 09:34:18;;;;;;;6.63;6.13;;;6.10;99.90;;;;;;5050774;28;20224;-64
2022/12/02 09:36:44;;;;;;;5.70;5.30;;;6.10;99.90;;;;;;5050721;28;20196;-62
2022/12/02 09:39:11;;;;;;;5.80;5.40;;;6.00;99.90;;;;;;5053491;28;20294;-63
2022/12/02 09:41:40;;;;;;;6.00;5.60;;;6.00;99.90;;;;;;5042208;28;20206;-64
2022/12/02 09:44:06;;;;;;;5.43;5.03;;;6.00;99.90;;;;;;5052215;28;20231;-65
2022/12/02 09:46:34;;;;;;;5.97;5.57;;;6.00;99.90;;;;;;5052949;28;20298;-62
2022/12/02 09:49:01;;;;;;;5.87;5.47;;;6.00;99.90;;;;;;5045103;28;20220;-63
2022/12/02 09:51:28;;;;;;;6.13;5.63;;;6.10;99.90;;;;;;5041592;28;20236;-63
2022/12/02 09:53:55;;;;;;;5.57;5.17;;;6.10;99.90;;;;;;5052244;28;20645;-64
2022/12/02 09:56:22;;;;;;;6.10;5.70;;;6.10;99.90;;;;;;5050493;28;20208;-65
2022/12/02 09:58:54;;;;;;;6.00;5.60;;;6.10;99.90;;;;;;5050993;28;20294;-65
2022/12/02 10:01:21;;;;;;;6.17;5.77;;;6.10;99.90;;;;;;5053472;28;20215;-67
2022/12/02 10:03:50;;;;;;;5.83;5.43;;;6.00;99.90;;;;;;5049942;28;20311;-65
2022/12/02 10:06:24;;;;;;;5.73;5.33;;;6.10;99.90;;;;;;5044291;28;20207;-63
2022/12/02 10:08:52;;;;;;;6.30;5.90;;;6.20;99.90;;;;;;5053607;28;20259;-63
2022/12/02 10:11:23;;;;;;;6.07;5.67;;;6.20;99.90;;;;;;5042326;28;20287;-64
2022/12/02 10:13:51;;;;;;;5.87;5.47;;;6.10;99.90;;;;;;5038577;28;20224;-64
2022/12/02 10:16:18;;;;;;;6.27;5.87;;;6.20;99.90;;;;;;5047655;28;20215;-64
2022/12/02 10:18:46;;;;;;;6.57;6.17;;;6.20;99.90;;;;;;5053485;28;20292;-64
2022/12/02 10:21:13;;;;;;;6.70;6.03;;;6.20;99.90;;;;;;5047852;28;20572;-65
2022/12/02 10:23:55;;;;;;;7.27;6.67;;;6.10;99.90;;;;;;5048905;28;20309;-62
2022/12/02 10:26:22;;;;;;;6.17;5.77;;;6.10;99.90;;;;;;5048740;28;20203;-63
2022/12/02 10:29:02;;;;;;;5.93;5.53;;;6.10;99.90;;;;;;5054051;28;20231;-64
2022/12/02 10:31:29;;;;;;;6.10;5.70;;;6.10;99.90;;;;;;5045860;28;20726;-63
2022/12/02 10:33:58;;;;;;;5.90;5.50;;;6.20;99.90;;;;;;5051977;28;20227;-63
2022/12/02 10:36:33;;;;;;;6.53;6.03;;;6.10;99.90;;;;;;5046320;28;20571;-63
2022/12/02 10:39:21;;;;;;;6.53;6.03;;;6.10;99.90;;;;;;5052817;28;20199;-66
2022/12/02 10:41:50;;;;;;;5.67;5.27;;;6.10;99.90;;;;;;5029738;28;20294;-64
2022/12/02 10:44:20;;;;;;;6.43;5.90;;;6.00;99.90;;;;;;5052766;28;20277;-63
2022/12/02 10:46:48;;;;;;;6.53;6.03;;;6.10;99.90;;;;;;5058696;28;20208;-64
2022/12/02 10:49:18;;;;;;;7.10;6.60;;;6.20;99.90;;;;;;5055264;28;20350;-62
2022/12/02 10:51:45;;;;;;;7.03;6.53;;;6.20;99.90;;;;;;5090951;22;20660;-65
2022/12/02 10:54:22;;;;;;;6.40;6.00;;;6.20;99.90;;;;;;5048614;28;20291;-65
2022/12/02 10:56:49;;;;;;;6.10;5.60;;;6.10;99.90;;;;;;5051150;28;20615;-65
2022/12/02 10:59:16;;;;;;;6.60;6.00;;;6.10;99.90;;;;;;5050121;28;20273;-66
2022/12/02 11:01:45;;;;;;;6.50;6.00;;;6.00;99.90;;;;;;5050440;28;20576;-66
2022/12/02 11:04:13;;;;;;;6.23;5.83;;;6.00;99.90;;;;;;5050629;28;20211;-64
2022/12/02 11:06:39;;;;;;;6.23;5.77;;;6.00;99.90;;;;;;5051197;28;20287;-66
2022/12/02 11:09:07;;;;;;;6.07;5.67;;;6.10;99.90;;;;;;5051265;28;20230;-64
2022/12/02 11:11:39;;;;;;;6.33;5.93;;;6.20;99.90;;;;;;5042542;28;20277;-66
2022/12/02 11:14:11;;;;;;;5.93;5.50;;;6.20;99.90;;;;;;5047634;28;20214;-65
2022/12/02 11:17:07;;;;;;;6.07;5.67;;;6.20;99.90;;;;;;5051091;28;20208;-65
2022/12/02 11:19:46;;;;;;;5.83;5.43;;;6.30;99.90;;;;;;5043292;28;20303;-64
2022/12/02 11:22:48;;;;;;;6.07;5.67;;;6.30;99.90;;;;;;5049856;28;20655;-67
2022/12/02 11:25:53;;;;;;;6.13;5.63;;;6.30;99.90;;;;;;5052270;28;20207;-65
2022/12/02 11:29:15;;;;;;;6.10;5.70;;;6.30;99.90;;;;;;5048445;28;20226;-65
2022/12/02 11:31:42;;;;;;;6.17;5.73;;;6.30;99.90;;;;;;4972080;28;20223;-66
2022/12/02 11:34:41;;;;;;;7.07;6.57;;;6.30;99.90;;;;;;4969746;28;20199;-65
2022/12/02 11:37:36;;;;;;;6.43;6.03;;;6.30;99.90;;;;;;5032248;28;20238;-65
2022/12/02 11:40:05;;;;;;;6.37;5.87;;;6.30;99.90;;;;;;5050113;28;20242;-64
2022/12/02 11:42:34;;;;;;;7.37;6.80;;;6.20;99.90;;;;;;5045305;28;20255;-64
2022/12/02 11:45:48;;;;;;;6.40;6.00;;;6.20;99.90;;;;;;5062210;28;20615;-65
2022/12/02 11:48:16;;;;;;;6.47;6.07;;;6.10;99.90;;;;;;5052362;28;20231;-65
2022/12/02 11:50:45;;;;;;;6.37;5.97;;;6.00;99.90;;;;;;5054054;28;20211;-67
2022/12/02 11:53:16;;;;;;;7.03;6.53;;;6.00;99.90;;;;;;5053870;28;20289;-65
2022/12/02 11:55:46;;;;;;;6.63;6.23;;;6.00;99.90;;;;;;5055252;28;20200;-65
2022/12/02 11:58:18;;;;;;;6.27;5.87;;;5.90;99.90;;;;;;5058989;28;20773;-66
2022/12/02 12:01:00;;;;;;;6.90;6.37;;;5.90;99.90;;;;;;5053475;28;20211;-65
2022/12/02 12:03:27;;;;;;;6.43;5.93;;;6.00;99.90;;;;;;5052920;28;20349;-65
2022/12/02 12:06:11;;;;;;;6.67;6.17;;;6.10;99.90;;;;;;5053532;28;20223;-66
2022/12/02 12:08:39;;;;;;;6.10;5.70;;;5.90;99.90;;;;;;5055795;28;20231;-65
2022/12/02 12:11:21;;;;;;;6.23;5.83;;;5.90;99.90;;;;;;5053002;28;20295;-66
2022/12/02 12:14:22;;;;;;;6.87;6.47;;;5.90;99.90;;;;;;5046914;28;20576;-66
2022/12/02 12:16:50;;;;;;;6.57;6.07;;;5.70;99.90;;;;;;5035030;28;20687;-66
2022/12/02 12:19:26;;;;;;;7.00;6.50;;;5.80;99.90;;;;;;5052831;28;20204;-66
2022/12/02 12:21:56;;;;;;;7.27;6.77;;;5.70;99.90;;;;;;5052640;28;20314;-65
2022/12/02 12:24:33;;;;;;;7.40;6.80;;;5.60;99.90;;;;;;5052856;28;20357;-64
2022/12/02 12:27:31;;;;;;;7.63;7.03;;;5.60;99.90;;;;;;5052820;28;20554;-65
2022/12/02 12:29:58;;;;;;;7.47;6.97;;;5.70;99.90;;;;;;5049710;28;20309;-65
2022/12/02 12:32:25;;;;;;;7.23;6.73;;;5.70;99.90;;;;;;5052535;28;20227;-66
2022/12/02 12:34:51;;;;;;;7.27;6.67;;;5.80;99.90;;;;;;5056609;28;20224;-65
2022/12/02 12:37:20;;;;;;;7.73;7.13;;;5.80;99.90;;;;;;5053339;28;20215;-65
2022/12/02 12:39:47;;;;;;;7.10;6.60;;;5.90;99.90;;;;;;5055027;28;20203;-65
2022/12/02 12:42:13;;;;;;;7.03;6.53;;;5.90;99.90;;;;;;5054158;28;20312;-64
2022/12/02 12:44:40;;;;;;;7.20;6.70;;;5.80;99.90;;;;;;5053158;28;20278;-64
2022/12/02 12:47:07;;;;;;;7.33;6.40;;;5.80;99.90;;;;;;5056764;28;20200;-66
2022/12/02 12:49:34;;;;;;;7.17;6.67;;;5.80;99.90;;;;;;5056896;28;20675;-66
2022/12/02 12:52:02;;;;;;;7.00;6.50;;;5.70;99.90;;;;;;5052883;28;20232;-66
2022/12/02 12:54:30;;;;;;;7.33;6.83;;;5.70;99.90;;;;;;5051546;28;20638;-66
2022/12/02 12:56:57;;;;;;;7.40;6.90;;;5.80;99.90;;;;;;5051308;28;20204;-66
2022/12/02 12:59:24;;;;;;;6.93;6.47;;;5.80;99.90;;;;;;5052109;28;20198;-64
2022/12/02 13:01:50;;;;;;;6.43;5.93;;;5.80;99.90;;;;;;5052507;28;20223;-66
2022/12/02 13:04:17;;;;;;;7.50;6.90;;;5.80;99.90;;;;;;5053422;28;20208;-66
2022/12/02 13:06:45;;;;;;;7.50;6.80;;;5.70;99.90;;;;;;5053022;28;20223;-64
2022/12/02 13:09:13;;;;;;;6.80;6.37;;;5.70;99.90;;;;;;5053647;28;20223;-64
2022/12/02 13:11:42;;;;;;;7.03;6.43;;;5.60;99.90;;;;;;5052143;28;20939;-66